KADS/ADS METAR and TAF weather

Enter ICAO airport designator
Station Type Date Time Source
KADS METAR 2022/01/29 12:47 UTC NOAA

KADS 291247Z 00000KT 10SM SKC 01/M06 A3037


Station Type Date Time Source
KADS Decoded METAR 2022/01/29 12:47 UTC NOAA

Dallas / Addison Airport, TX, United States (KADS) 32-58N 096-50W
Jan 29, 2022 - 07:47 AM EST / 2022.01.29 1247 UTC
Wind: Calm:0
Visibility: 10 mile(s):0
Sky conditions: clear
Temperature: 33 F (1 C)
Dew Point: 21 F (-6 C)
Relative Humidity: 59%
Pressure (altimeter): 30.37 in. Hg (1028 hPa)
ob: KADS 291247Z 00000KT 10SM SKC 01/M06 A3037
cycle: 13

Station Type Date Time Source
KADS TAF UTC NOAA

Error!

Example: see airport list